sensor_id;sensor_type;location;lat;lon;timestamp;P1;durP1;ratioP1;P2;durP2;ratioP2
16119;SDS011;12670;53.502;10.252;2022-10-30T00:01:37;32.03;;;10.50;;
16119;SDS011;12670;53.502;10.252;2022-10-30T00:04:40;26.03;;;9.43;;
16119;SDS011;12670;53.502;10.252;2022-10-30T00:07:42;27.10;;;9.43;;
16119;SDS011;12670;53.502;10.252;2022-10-30T00:10:45;23.67;;;9.60;;
16119;SDS011;12670;53.502;10.252;2022-10-30T00:13:51;23.03;;;9.07;;
16119;SDS011;12670;53.502;10.252;2022-10-30T00:16:54;17.20;;;8.33;;
16119;SDS011;12670;53.502;10.252;2022-10-30T00:19:56;24.60;;;9.13;;
16119;SDS011;12670;53.502;10.252;2022-10-30T00:22:59;25.47;;;9.53;;
16119;SDS011;12670;53.502;10.252;2022-10-30T00:26:02;18.47;;;9.70;;
16119;SDS011;12670;53.502;10.252;2022-10-30T00:29:06;19.53;;;9.30;;
16119;SDS011;12670;53.502;10.252;2022-10-30T00:32:09;22.90;;;8.83;;
16119;SDS011;12670;53.502;10.252;2022-10-30T00:35:11;21.27;;;8.63;;
16119;SDS011;12670;53.502;10.252;2022-10-30T00:38:14;16.17;;;8.50;;
16119;SDS011;12670;53.502;10.252;2022-10-30T00:41:18;23.80;;;9.47;;
16119;SDS011;12670;53.502;10.252;2022-10-30T00:44:39;20.50;;;9.13;;
16119;SDS011;12670;53.502;10.252;2022-10-30T00:47:47;26.60;;;9.40;;
16119;SDS011;12670;53.502;10.252;2022-10-30T00:50:53;22.57;;;7.93;;
16119;SDS011;12670;53.502;10.252;2022-10-30T00:53:58;16.03;;;8.53;;
16119;SDS011;12670;53.502;10.252;2022-10-30T00:57:04;15.63;;;8.47;;
16119;SDS011;12670;53.502;10.252;2022-10-30T01:00:11;18.13;;;8.13;;
16119;SDS011;12670;53.502;10.252;2022-10-30T01:03:15;25.03;;;9.00;;
16119;SDS011;12670;53.502;10.252;2022-10-30T01:06:19;15.83;;;8.60;;
16119;SDS011;12670;53.502;10.252;2022-10-30T01:09:23;20.70;;;8.97;;
16119;SDS011;12670;53.502;10.252;2022-10-30T01:12:26;20.30;;;8.73;;
16119;SDS011;12670;53.502;10.252;2022-10-30T01:15:31;23.13;;;9.10;;
16119;SDS011;12670;53.502;10.252;2022-10-30T01:18:39;21.53;;;8.97;;
16119;SDS011;12670;53.502;10.252;2022-10-30T01:21:52;18.60;;;8.33;;
16119;SDS011;12670;53.502;10.252;2022-10-30T01:25:10;16.70;;;7.93;;
16119;SDS011;12670;53.502;10.252;2022-10-30T01:28:26;23.23;;;8.93;;
16119;SDS011;12670;53.502;10.252;2022-10-30T01:31:43;23.37;;;8.40;;
16119;SDS011;12670;53.502;10.252;2022-10-30T01:34:54;20.53;;;8.10;;
16119;SDS011;12670;53.502;10.252;2022-10-30T01:38:01;24.60;;;7.83;;
16119;SDS011;12670;53.502;10.252;2022-10-30T01:41:08;16.33;;;8.70;;
16119;SDS011;12670;53.502;10.252;2022-10-30T01:44:11;22.10;;;8.30;;
16119;SDS011;12670;53.502;10.252;2022-10-30T01:47:21;21.07;;;8.07;;
16119;SDS011;12670;53.502;10.252;2022-10-30T01:50:35;21.93;;;8.30;;
16119;SDS011;12670;53.502;10.252;2022-10-30T01:53:50;16.57;;;7.97;;
16119;SDS011;12670;53.502;10.252;2022-10-30T01:57:01;22.03;;;7.90;;
16119;SDS011;12670;53.502;10.252;2022-10-30T02:00:10;22.40;;;7.80;;
16119;SDS011;12670;53.502;10.252;2022-10-30T02:03:15;22.40;;;7.67;;
16119;SDS011;12670;53.502;10.252;2022-10-30T02:06:17;22.97;;;7.73;;
16119;SDS011;12670;53.502;10.252;2022-10-30T02:09:20;24.97;;;8.13;;
16119;SDS011;12670;53.502;10.252;2022-10-30T02:12:22;26.30;;;7.77;;
16119;SDS011;12670;53.502;10.252;2022-10-30T02:15:26;23.80;;;7.83;;
16119;SDS011;12670;53.502;10.252;2022-10-30T02:18:30;19.57;;;7.40;;
16119;SDS011;12670;53.502;10.252;2022-10-30T02:21:34;17.63;;;8.03;;
16119;SDS011;12670;53.502;10.252;2022-10-30T02:24:37;14.97;;;7.73;;
16119;SDS011;12670;53.502;10.252;2022-10-30T02:27:39;20.80;;;7.43;;
16119;SDS011;12670;53.502;10.252;2022-10-30T02:30:42;14.70;;;7.60;;
16119;SDS011;12670;53.502;10.252;2022-10-30T02:33:45;19.17;;;7.80;;
16119;SDS011;12670;53.502;10.252;2022-10-30T02:36:49;20.30;;;7.43;;
16119;SDS011;12670;53.502;10.252;2022-10-30T02:39:52;23.47;;;7.13;;
16119;SDS011;12670;53.502;10.252;2022-10-30T02:42:54;19.87;;;7.20;;
16119;SDS011;12670;53.502;10.252;2022-10-30T02:45:57;15.80;;;7.03;;
16119;SDS011;12670;53.502;10.252;2022-10-30T02:49:00;18.83;;;7.20;;
16119;SDS011;12670;53.502;10.252;2022-10-30T02:52:04;18.53;;;7.10;;
16119;SDS011;12670;53.502;10.252;2022-10-30T02:55:08;19.87;;;7.73;;
16119;SDS011;12670;53.502;10.252;2022-10-30T02:58:10;18.00;;;7.50;;
16119;SDS011;12670;53.502;10.252;2022-10-30T03:01:13;16.73;;;7.07;;
16119;SDS011;12670;53.502;10.252;2022-10-30T03:04:17;21.67;;;7.50;;
16119;SDS011;12670;53.502;10.252;2022-10-30T03:07:21;20.03;;;6.90;;
16119;SDS011;12670;53.502;10.252;2022-10-30T03:10:24;25.20;;;7.90;;
16119;SDS011;12670;53.502;10.252;2022-10-30T03:13:27;18.73;;;7.60;;
16119;SDS011;12670;53.502;10.252;2022-10-30T03:16:30;13.93;;;7.17;;
16119;SDS011;12670;53.502;10.252;2022-10-30T03:19:33;17.73;;;7.07;;
16119;SDS011;12670;53.502;10.252;2022-10-30T03:22:38;13.17;;;6.30;;
16119;SDS011;12670;53.502;10.252;2022-10-30T03:25:40;22.27;;;7.60;;
16119;SDS011;12670;53.502;10.252;2022-10-30T03:28:43;21.50;;;7.17;;
16119;SDS011;12670;53.502;10.252;2022-10-30T03:31:46;21.27;;;7.00;;
16119;SDS011;12670;53.502;10.252;2022-10-30T03:34:48;24.17;;;7.30;;
16119;SDS011;12670;53.502;10.252;2022-10-30T03:37:52;28.27;;;7.50;;
16119;SDS011;12670;53.502;10.252;2022-10-30T03:40:54;18.27;;;7.13;;
16119;SDS011;12670;53.502;10.252;2022-10-30T03:43:57;18.57;;;6.83;;
16119;SDS011;12670;53.502;10.252;2022-10-30T03:47:00;21.47;;;7.93;;
16119;SDS011;12670;53.502;10.252;2022-10-30T03:50:03;19.57;;;6.87;;
16119;SDS011;12670;53.502;10.252;2022-10-30T03:53:07;24.77;;;7.73;;
16119;SDS011;12670;53.502;10.252;2022-10-30T03:56:10;26.30;;;7.07;;
16119;SDS011;12670;53.502;10.252;2022-10-30T03:59:12;23.83;;;7.53;;
16119;SDS011;12670;53.502;10.252;2022-10-30T04:02:15;18.13;;;7.47;;
16119;SDS011;12670;53.502;10.252;2022-10-30T04:05:18;18.47;;;7.30;;
16119;SDS011;12670;53.502;10.252;2022-10-30T04:08:24;19.00;;;7.73;;
16119;SDS011;12670;53.502;10.252;2022-10-30T04:11:26;26.00;;;7.50;;
16119;SDS011;12670;53.502;10.252;2022-10-30T04:14:29;19.80;;;7.80;;
16119;SDS011;12670;53.502;10.252;2022-10-30T04:17:31;19.40;;;6.80;;
16119;SDS011;12670;53.502;10.252;2022-10-30T04:20:34;31.37;;;7.70;;
16119;SDS011;12670;53.502;10.252;2022-10-30T04:23:38;48.27;;;7.37;;
16119;SDS011;12670;53.502;10.252;2022-10-30T04:26:40;22.60;;;7.23;;
16119;SDS011;12670;53.502;10.252;2022-10-30T04:29:43;20.97;;;7.17;;
16119;SDS011;12670;53.502;10.252;2022-10-30T04:32:47;20.30;;;7.00;;
16119;SDS011;12670;53.502;10.252;2022-10-30T04:35:50;19.73;;;6.83;;
16119;SDS011;12670;53.502;10.252;2022-10-30T04:38:53;16.07;;;7.50;;
16119;SDS011;12670;53.502;10.252;2022-10-30T04:41:56;15.37;;;7.30;;
16119;SDS011;12670;53.502;10.252;2022-10-30T04:44:58;17.33;;;6.80;;
16119;SDS011;12670;53.502;10.252;2022-10-30T04:48:05;22.73;;;7.33;;
16119;SDS011;12670;53.502;10.252;2022-10-30T04:51:09;20.47;;;7.03;;
16119;SDS011;12670;53.502;10.252;2022-10-30T04:54:14;18.70;;;7.07;;
16119;SDS011;12670;53.502;10.252;2022-10-30T04:57:16;21.47;;;7.33;;
16119;SDS011;12670;53.502;10.252;2022-10-30T05:00:19;14.67;;;7.00;;
16119;SDS011;12670;53.502;10.252;2022-10-30T05:03:22;21.13;;;7.13;;
16119;SDS011;12670;53.502;10.252;2022-10-30T05:06:25;16.50;;;7.00;;
16119;SDS011;12670;53.502;10.252;2022-10-30T05:09:32;14.67;;;6.60;;
16119;SDS011;12670;53.502;10.252;2022-10-30T05:12:34;19.03;;;7.13;;
16119;SDS011;12670;53.502;10.252;2022-10-30T05:15:37;20.60;;;6.97;;
16119;SDS011;12670;53.502;10.252;2022-10-30T05:18:39;13.47;;;6.73;;
16119;SDS011;12670;53.502;10.252;2022-10-30T05:21:42;17.67;;;6.67;;
16119;SDS011;12670;53.502;10.252;2022-10-30T05:24:46;18.40;;;7.00;;
16119;SDS011;12670;53.502;10.252;2022-10-30T05:27:48;21.20;;;7.83;;
16119;SDS011;12670;53.502;10.252;2022-10-30T05:30:51;18.23;;;7.40;;
16119;SDS011;12670;53.502;10.252;2022-10-30T05:33:53;14.17;;;6.47;;
16119;SDS011;12670;53.502;10.252;2022-10-30T05:36:56;20.67;;;7.10;;
16119;SDS011;12670;53.502;10.252;2022-10-30T05:40:00;18.63;;;6.93;;
16119;SDS011;12670;53.502;10.252;2022-10-30T05:43:02;23.30;;;7.57;;
16119;SDS011;12670;53.502;10.252;2022-10-30T05:46:06;14.60;;;6.70;;
16119;SDS011;12670;53.502;10.252;2022-10-30T05:49:08;18.37;;;6.87;;
16119;SDS011;12670;53.502;10.252;2022-10-30T05:52:11;15.43;;;7.37;;
16119;SDS011;12670;53.502;10.252;2022-10-30T05:55:15;20.03;;;7.23;;
16119;SDS011;12670;53.502;10.252;2022-10-30T05:58:17;19.33;;;6.70;;
16119;SDS011;12670;53.502;10.252;2022-10-30T06:01:20;26.50;;;6.93;;
16119;SDS011;12670;53.502;10.252;2022-10-30T06:04:22;18.00;;;7.10;;
16119;SDS011;12670;53.502;10.252;2022-10-30T06:07:25;13.97;;;7.07;;
16119;SDS011;12670;53.502;10.252;2022-10-30T06:10:29;17.03;;;7.10;;
16119;SDS011;12670;53.502;10.252;2022-10-30T06:13:31;23.90;;;7.20;;
16119;SDS011;12670;53.502;10.252;2022-10-30T06:16:35;20.50;;;6.90;;
16119;SDS011;12670;53.502;10.252;2022-10-30T06:19:38;16.53;;;6.80;;
16119;SDS011;12670;53.502;10.252;2022-10-30T06:22:40;17.00;;;6.30;;
16119;SDS011;12670;53.502;10.252;2022-10-30T06:25:44;15.93;;;7.00;;
16119;SDS011;12670;53.502;10.252;2022-10-30T06:28:47;17.60;;;7.17;;
16119;SDS011;12670;53.502;10.252;2022-10-30T06:31:49;15.47;;;6.97;;
16119;SDS011;12670;53.502;10.252;2022-10-30T06:34:52;20.27;;;7.90;;
16119;SDS011;12670;53.502;10.252;2022-10-30T06:37:54;17.43;;;8.03;;
16119;SDS011;12670;53.502;10.252;2022-10-30T06:41:01;15.97;;;8.27;;
16119;SDS011;12670;53.502;10.252;2022-10-30T06:44:04;24.63;;;8.53;;
16119;SDS011;12670;53.502;10.252;2022-10-30T06:47:06;18.17;;;7.57;;
16119;SDS011;12670;53.502;10.252;2022-10-30T06:50:09;21.70;;;8.20;;
16119;SDS011;12670;53.502;10.252;2022-10-30T06:53:13;15.83;;;7.10;;
16119;SDS011;12670;53.502;10.252;2022-10-30T06:56:17;23.77;;;7.13;;
16119;SDS011;12670;53.502;10.252;2022-10-30T06:59:19;18.67;;;7.20;;
16119;SDS011;12670;53.502;10.252;2022-10-30T07:02:22;23.80;;;7.50;;
16119;SDS011;12670;53.502;10.252;2022-10-30T07:05:24;20.07;;;7.10;;
16119;SDS011;12670;53.502;10.252;2022-10-30T07:08:27;16.00;;;7.27;;
16119;SDS011;12670;53.502;10.252;2022-10-30T07:11:31;13.53;;;6.70;;
16119;SDS011;12670;53.502;10.252;2022-10-30T07:14:33;17.03;;;6.83;;
16119;SDS011;12670;53.502;10.252;2022-10-30T07:17:36;14.90;;;7.03;;
16119;SDS011;12670;53.502;10.252;2022-10-30T07:20:39;15.63;;;7.27;;
16119;SDS011;12670;53.502;10.252;2022-10-30T07:23:41;17.20;;;7.43;;
16119;SDS011;12670;53.502;10.252;2022-10-30T07:26:45;24.27;;;7.70;;
16119;SDS011;12670;53.502;10.252;2022-10-30T07:29:48;15.70;;;7.10;;
16119;SDS011;12670;53.502;10.252;2022-10-30T07:32:57;17.97;;;6.87;;
16119;SDS011;12670;53.502;10.252;2022-10-30T07:36:02;15.97;;;6.80;;
16119;SDS011;12670;53.502;10.252;2022-10-30T07:39:04;21.00;;;7.13;;
16119;SDS011;12670;53.502;10.252;2022-10-30T07:42:08;18.47;;;7.00;;
16119;SDS011;12670;53.502;10.252;2022-10-30T07:45:11;21.23;;;7.57;;
16119;SDS011;12670;53.502;10.252;2022-10-30T07:48:13;16.60;;;6.70;;
16119;SDS011;12670;53.502;10.252;2022-10-30T07:51:16;22.77;;;7.13;;
16119;SDS011;12670;53.502;10.252;2022-10-30T07:54:18;24.03;;;6.40;;
16119;SDS011;12670;53.502;10.252;2022-10-30T07:57:22;27.63;;;7.87;;
16119;SDS011;12670;53.502;10.252;2022-10-30T08:00:25;17.07;;;7.00;;
16119;SDS011;12670;53.502;10.252;2022-10-30T08:03:27;20.33;;;7.30;;
16119;SDS011;12670;53.502;10.252;2022-10-30T08:06:30;15.87;;;7.17;;
16119;SDS011;12670;53.502;10.252;2022-10-30T08:09:33;24.30;;;7.83;;
16119;SDS011;12670;53.502;10.252;2022-10-30T08:12:37;18.73;;;7.00;;
16119;SDS011;12670;53.502;10.252;2022-10-30T08:15:40;17.77;;;7.13;;
16119;SDS011;12670;53.502;10.252;2022-10-30T08:18:43;25.30;;;8.17;;
16119;SDS011;12670;53.502;10.252;2022-10-30T08:21:46;17.93;;;7.60;;
16119;SDS011;12670;53.502;10.252;2022-10-30T08:24:48;20.87;;;7.40;;
16119;SDS011;12670;53.502;10.252;2022-10-30T08:27:53;18.67;;;7.50;;
16119;SDS011;12670;53.502;10.252;2022-10-30T08:30:56;18.33;;;7.00;;
16119;SDS011;12670;53.502;10.252;2022-10-30T08:33:59;22.77;;;7.03;;
16119;SDS011;12670;53.502;10.252;2022-10-30T08:37:02;26.80;;;7.10;;
16119;SDS011;12670;53.502;10.252;2022-10-30T08:40:05;17.03;;;6.63;;
16119;SDS011;12670;53.502;10.252;2022-10-30T08:43:10;18.10;;;6.10;;
16119;SDS011;12670;53.502;10.252;2022-10-30T08:46:13;16.90;;;7.47;;
16119;SDS011;12670;53.502;10.252;2022-10-30T08:49:15;12.63;;;6.23;;
16119;SDS011;12670;53.502;10.252;2022-10-30T08:52:18;13.80;;;6.07;;
16119;SDS011;12670;53.502;10.252;2022-10-30T08:55:20;22.10;;;7.53;;
16119;SDS011;12670;53.502;10.252;2022-10-30T08:58:24;15.47;;;6.47;;
16119;SDS011;12670;53.502;10.252;2022-10-30T09:01:27;18.10;;;6.67;;
16119;SDS011;12670;53.502;10.252;2022-10-30T09:04:29;19.27;;;6.27;;
16119;SDS011;12670;53.502;10.252;2022-10-30T09:07:32;12.13;;;6.43;;
16119;SDS011;12670;53.502;10.252;2022-10-30T09:10:35;13.30;;;5.77;;
16119;SDS011;12670;53.502;10.252;2022-10-30T09:13:38;19.67;;;6.60;;
16119;SDS011;12670;53.502;10.252;2022-10-30T09:16:41;14.60;;;6.63;;
16119;SDS011;12670;53.502;10.252;2022-10-30T09:19:43;15.03;;;6.30;;
16119;SDS011;12670;53.502;10.252;2022-10-30T09:22:46;15.40;;;6.33;;
16119;SDS011;12670;53.502;10.252;2022-10-30T09:25:48;12.97;;;6.33;;
16119;SDS011;12670;53.502;10.252;2022-10-30T09:28:52;18.53;;;6.40;;
16119;SDS011;12670;53.502;10.252;2022-10-30T09:31:55;20.77;;;7.10;;
16119;SDS011;12670;53.502;10.252;2022-10-30T09:34:57;16.67;;;7.37;;
16119;SDS011;12670;53.502;10.252;2022-10-30T09:38:00;20.80;;;6.83;;
16119;SDS011;12670;53.502;10.252;2022-10-30T09:41:06;15.90;;;7.00;;
16119;SDS011;12670;53.502;10.252;2022-10-30T09:44:25;17.37;;;6.97;;
16119;SDS011;12670;53.502;10.252;2022-10-30T09:47:38;16.73;;;6.43;;
16119;SDS011;12670;53.502;10.252;2022-10-30T09:50:52;17.73;;;6.53;;
16119;SDS011;12670;53.502;10.252;2022-10-30T09:54:03;19.47;;;7.33;;
16119;SDS011;12670;53.502;10.252;2022-10-30T09:57:18;16.70;;;7.23;;
16119;SDS011;12670;53.502;10.252;2022-10-30T10:00:32;14.47;;;6.87;;
16119;SDS011;12670;53.502;10.252;2022-10-30T10:03:43;17.13;;;6.80;;
16119;SDS011;12670;53.502;10.252;2022-10-30T10:06:59;17.70;;;6.23;;
16119;SDS011;12670;53.502;10.252;2022-10-30T10:10:04;19.55;;;7.20;;
16119;SDS011;12670;53.502;10.252;2022-10-30T10:13:14;18.67;;;6.82;;
16119;SDS011;12670;53.502;10.252;2022-10-30T10:16:29;21.58;;;8.05;;
16119;SDS011;12670;53.502;10.252;2022-10-30T10:19:37;21.70;;;7.18;;
16119;SDS011;12670;53.502;10.252;2022-10-30T10:22:45;13.32;;;6.10;;
16119;SDS011;12670;53.502;10.252;2022-10-30T10:25:51;20.52;;;6.75;;
16119;SDS011;12670;53.502;10.252;2022-10-30T10:28:58;20.48;;;7.10;;
16119;SDS011;12670;53.502;10.252;2022-10-30T10:32:33;20.98;;;6.35;;
16119;SDS011;12670;53.502;10.252;2022-10-30T10:35:55;16.40;;;5.70;;
16119;SDS011;12670;53.502;10.252;2022-10-30T10:39:12;21.77;;;6.53;;
16119;SDS011;12670;53.502;10.252;2022-10-30T10:42:29;22.77;;;6.72;;
16119;SDS011;12670;53.502;10.252;2022-10-30T10:45:43;16.13;;;6.18;;
16119;SDS011;12670;53.502;10.252;2022-10-30T10:49:02;20.33;;;6.15;;
16119;SDS011;12670;53.502;10.252;2022-10-30T10:52:15;16.23;;;6.95;;
16119;SDS011;12670;53.502;10.252;2022-10-30T10:55:21;17.73;;;6.53;;
16119;SDS011;12670;53.502;10.252;2022-10-30T10:58:29;15.18;;;5.15;;
16119;SDS011;12670;53.502;10.252;2022-10-30T11:01:37;15.70;;;5.80;;
16119;SDS011;12670;53.502;10.252;2022-10-30T11:04:44;15.40;;;4.95;;
16119;SDS011;12670;53.502;10.252;2022-10-30T11:07:50;16.85;;;5.78;;
16119;SDS011;12670;53.502;10.252;2022-10-30T11:10:58;16.95;;;5.70;;
16119;SDS011;12670;53.502;10.252;2022-10-30T11:14:04;19.55;;;5.82;;
16119;SDS011;12670;53.502;10.252;2022-10-30T11:17:18;14.98;;;5.10;;
16119;SDS011;12670;53.502;10.252;2022-10-30T11:20:27;18.75;;;5.90;;
16119;SDS011;12670;53.502;10.252;2022-10-30T11:23:36;17.20;;;5.65;;
16119;SDS011;12670;53.502;10.252;2022-10-30T11:26:40;18.05;;;5.97;;
16119;SDS011;12670;53.502;10.252;2022-10-30T11:29:47;15.52;;;4.93;;
16119;SDS011;12670;53.502;10.252;2022-10-30T11:32:52;16.58;;;5.40;;
16119;SDS011;12670;53.502;10.252;2022-10-30T11:35:58;15.27;;;5.47;;
16119;SDS011;12670;53.502;10.252;2022-10-30T11:39:16;17.55;;;6.22;;
16119;SDS011;12670;53.502;10.252;2022-10-30T11:42:20;16.45;;;6.20;;
16119;SDS011;12670;53.502;10.252;2022-10-30T11:45:23;13.90;;;6.00;;
16119;SDS011;12670;53.502;10.252;2022-10-30T11:48:28;16.23;;;6.32;;
16119;SDS011;12670;53.502;10.252;2022-10-30T11:51:36;20.20;;;6.03;;
16119;SDS011;12670;53.502;10.252;2022-10-30T11:54:41;15.05;;;5.93;;
16119;SDS011;12670;53.502;10.252;2022-10-30T11:57:47;15.25;;;5.40;;
16119;SDS011;12670;53.502;10.252;2022-10-30T12:00:59;19.50;;;5.40;;
16119;SDS011;12670;53.502;10.252;2022-10-30T12:04:14;18.60;;;5.60;;
16119;SDS011;12670;53.502;10.252;2022-10-30T12:07:25;16.75;;;5.10;;
16119;SDS011;12670;53.502;10.252;2022-10-30T12:10:30;20.83;;;6.07;;
16119;SDS011;12670;53.502;10.252;2022-10-30T12:13:38;20.42;;;5.47;;
16119;SDS011;12670;53.502;10.252;2022-10-30T12:16:43;22.08;;;6.85;;
16119;SDS011;12670;53.502;10.252;2022-10-30T12:19:49;22.38;;;5.80;;
16119;SDS011;12670;53.502;10.252;2022-10-30T12:22:55;16.27;;;5.78;;
16119;SDS011;12670;53.502;10.252;2022-10-30T12:26:00;12.85;;;5.70;;
16119;SDS011;12670;53.502;10.252;2022-10-30T12:29:11;16.17;;;5.95;;
16119;SDS011;12670;53.502;10.252;2022-10-30T12:32:18;15.48;;;5.43;;
16119;SDS011;12670;53.502;10.252;2022-10-30T12:35:26;15.18;;;5.47;;
16119;SDS011;12670;53.502;10.252;2022-10-30T12:38:41;16.00;;;5.03;;
16119;SDS011;12670;53.502;10.252;2022-10-30T12:41:49;18.52;;;6.03;;
16119;SDS011;12670;53.502;10.252;2022-10-30T12:45:02;14.27;;;5.30;;
16119;SDS011;12670;53.502;10.252;2022-10-30T12:48:12;16.35;;;5.10;;
16119;SDS011;12670;53.502;10.252;2022-10-30T12:51:20;18.33;;;5.18;;
16119;SDS011;12670;53.502;10.252;2022-10-30T12:54:31;19.20;;;5.47;;
16119;SDS011;12670;53.502;10.252;2022-10-30T12:57:39;15.13;;;5.57;;
16119;SDS011;12670;53.502;10.252;2022-10-30T13:00:48;15.23;;;5.55;;
16119;SDS011;12670;53.502;10.252;2022-10-30T13:03:56;13.27;;;5.28;;
16119;SDS011;12670;53.502;10.252;2022-10-30T13:07:09;16.83;;;5.13;;
16119;SDS011;12670;53.502;10.252;2022-10-30T13:10:26;12.43;;;4.80;;
16119;SDS011;12670;53.502;10.252;2022-10-30T13:13:32;15.90;;;4.85;;
16119;SDS011;12670;53.502;10.252;2022-10-30T13:16:38;16.15;;;5.25;;
16119;SDS011;12670;53.502;10.252;2022-10-30T13:19:41;18.52;;;5.43;;
16119;SDS011;12670;53.502;10.252;2022-10-30T13:22:46;15.55;;;4.95;;
16119;SDS011;12670;53.502;10.252;2022-10-30T13:25:56;21.45;;;5.43;;
16119;SDS011;12670;53.502;10.252;2022-10-30T13:29:12;16.73;;;5.13;;
16119;SDS011;12670;53.502;10.252;2022-10-30T13:32:24;16.15;;;5.07;;
16119;SDS011;12670;53.502;10.252;2022-10-30T13:35:33;17.67;;;5.90;;
16119;SDS011;12670;53.502;10.252;2022-10-30T13:38:44;12.88;;;5.63;;
16119;SDS011;12670;53.502;10.252;2022-10-30T13:42:00;11.95;;;4.93;;
16119;SDS011;12670;53.502;10.252;2022-10-30T13:45:21;15.38;;;5.32;;
16119;SDS011;12670;53.502;10.252;2022-10-30T13:48:48;17.48;;;5.05;;
16119;SDS011;12670;53.502;10.252;2022-10-30T13:51:59;10.75;;;4.82;;
16119;SDS011;12670;53.502;10.252;2022-10-30T13:55:06;20.02;;;5.72;;
16119;SDS011;12670;53.502;10.252;2022-10-30T13:58:21;13.43;;;5.40;;
16119;SDS011;12670;53.502;10.252;2022-10-30T14:01:30;15.00;;;5.10;;
16119;SDS011;12670;53.502;10.252;2022-10-30T14:04:39;16.95;;;5.35;;
16119;SDS011;12670;53.502;10.252;2022-10-30T14:07:51;12.60;;;4.82;;
16119;SDS011;12670;53.502;10.252;2022-10-30T14:11:06;13.10;;;4.90;;
16119;SDS011;12670;53.502;10.252;2022-10-30T14:14:25;14.68;;;5.28;;
16119;SDS011;12670;53.502;10.252;2022-10-30T14:17:30;12.02;;;5.10;;
16119;SDS011;12670;53.502;10.252;2022-10-30T14:20:33;21.85;;;6.43;;
16119;SDS011;12670;53.502;10.252;2022-10-30T14:23:35;20.05;;;5.35;;
16119;SDS011;12670;53.502;10.252;2022-10-30T14:26:39;16.52;;;5.82;;
16119;SDS011;12670;53.502;10.252;2022-10-30T14:29:54;12.95;;;5.50;;
16119;SDS011;12670;53.502;10.252;2022-10-30T14:32:57;19.15;;;5.40;;
16119;SDS011;12670;53.502;10.252;2022-10-30T14:36:12;17.23;;;5.43;;
16119;SDS011;12670;53.502;10.252;2022-10-30T14:39:26;14.27;;;5.28;;
16119;SDS011;12670;53.502;10.252;2022-10-30T14:42:31;13.25;;;5.72;;
16119;SDS011;12670;53.502;10.252;2022-10-30T14:45:44;17.40;;;5.70;;
16119;SDS011;12670;53.502;10.252;2022-10-30T14:48:56;20.10;;;5.75;;
16119;SDS011;12670;53.502;10.252;2022-10-30T14:52:09;23.63;;;6.80;;
16119;SDS011;12670;53.502;10.252;2022-10-30T14:55:25;21.58;;;6.25;;
16119;SDS011;12670;53.502;10.252;2022-10-30T14:58:32;20.88;;;7.13;;
16119;SDS011;12670;53.502;10.252;2022-10-30T15:01:41;21.67;;;6.38;;
16119;SDS011;12670;53.502;10.252;2022-10-30T15:04:54;19.63;;;6.32;;
16119;SDS011;12670;53.502;10.252;2022-10-30T15:08:22;16.67;;;6.72;;
16119;SDS011;12670;53.502;10.252;2022-10-30T15:15:19;22.97;;;7.87;;
16119;SDS011;12670;53.502;10.252;2022-10-30T15:18:24;24.90;;;8.40;;
16119;SDS011;12670;53.502;10.252;2022-10-30T15:21:31;29.87;;;9.10;;
16119;SDS011;12670;53.502;10.252;2022-10-30T15:24:42;22.73;;;8.47;;
16119;SDS011;12670;53.502;10.252;2022-10-30T15:27:45;23.03;;;7.80;;
16119;SDS011;12670;53.502;10.252;2022-10-30T15:30:59;20.27;;;7.80;;
16119;SDS011;12670;53.502;10.252;2022-10-30T15:34:03;21.63;;;7.90;;
16119;SDS011;12670;53.502;10.252;2022-10-30T15:37:22;19.63;;;7.17;;
16119;SDS011;12670;53.502;10.252;2022-10-30T15:40:25;20.63;;;7.50;;
16119;SDS011;12670;53.502;10.252;2022-10-30T15:43:29;22.83;;;7.47;;
16119;SDS011;12670;53.502;10.252;2022-10-30T15:46:33;18.27;;;6.77;;
16119;SDS011;12670;53.502;10.252;2022-10-30T15:49:38;23.17;;;7.27;;
16119;SDS011;12670;53.502;10.252;2022-10-30T15:52:43;39.73;;;6.93;;
16119;SDS011;12670;53.502;10.252;2022-10-30T15:55:45;55.00;;;8.80;;
16119;SDS011;12670;53.502;10.252;2022-10-30T15:58:49;26.37;;;6.60;;
16119;SDS011;12670;53.502;10.252;2022-10-30T16:01:55;27.33;;;7.43;;
16119;SDS011;12670;53.502;10.252;2022-10-30T16:05:00;25.73;;;7.13;;
16119;SDS011;12670;53.502;10.252;2022-10-30T16:08:08;22.33;;;7.53;;
16119;SDS011;12670;53.502;10.252;2022-10-30T16:11:13;23.23;;;7.57;;
16119;SDS011;12670;53.502;10.252;2022-10-30T16:14:17;21.93;;;7.23;;
16119;SDS011;12670;53.502;10.252;2022-10-30T16:17:23;19.03;;;7.10;;
16119;SDS011;12670;53.502;10.252;2022-10-30T16:20:29;20.70;;;7.43;;
16119;SDS011;12670;53.502;10.252;2022-10-30T16:23:35;25.97;;;7.87;;
16119;SDS011;12670;53.502;10.252;2022-10-30T16:26:39;35.10;;;7.97;;
16119;SDS011;12670;53.502;10.252;2022-10-30T16:29:42;16.07;;;7.73;;
16119;SDS011;12670;53.502;10.252;2022-10-30T16:32:48;15.00;;;7.53;;
16119;SDS011;12670;53.502;10.252;2022-10-30T16:35:56;23.60;;;8.17;;
16119;SDS011;12670;53.502;10.252;2022-10-30T16:38:59;18.27;;;8.53;;
16119;SDS011;12670;53.502;10.252;2022-10-30T16:42:03;27.20;;;8.67;;
16119;SDS011;12670;53.502;10.252;2022-10-30T16:45:39;20.53;;;8.30;;
16119;SDS011;12670;53.502;10.252;2022-10-30T16:48:50;17.87;;;7.80;;
16119;SDS011;12670;53.502;10.252;2022-10-30T16:51:59;25.80;;;7.40;;
16119;SDS011;12670;53.502;10.252;2022-10-30T16:55:05;21.03;;;7.87;;
16119;SDS011;12670;53.502;10.252;2022-10-30T16:58:10;23.10;;;7.47;;
16119;SDS011;12670;53.502;10.252;2022-10-30T17:01:14;20.37;;;8.10;;
16119;SDS011;12670;53.502;10.252;2022-10-30T17:04:17;20.17;;;7.83;;
16119;SDS011;12670;53.502;10.252;2022-10-30T17:07:23;17.13;;;8.40;;
16119;SDS011;12670;53.502;10.252;2022-10-30T17:10:30;23.87;;;8.90;;
16119;SDS011;12670;53.502;10.252;2022-10-30T17:13:34;18.63;;;9.37;;
16119;SDS011;12670;53.502;10.252;2022-10-30T17:16:38;24.83;;;8.57;;
16119;SDS011;12670;53.502;10.252;2022-10-30T17:19:45;19.50;;;9.13;;
16119;SDS011;12670;53.502;10.252;2022-10-30T17:22:50;19.70;;;8.43;;
16119;SDS011;12670;53.502;10.252;2022-10-30T17:26:08;21.50;;;9.33;;
16119;SDS011;12670;53.502;10.252;2022-10-30T17:32:45;22.63;;;9.37;;
16119;SDS011;12670;53.502;10.252;2022-10-30T17:35:53;27.30;;;9.50;;
16119;SDS011;12670;53.502;10.252;2022-10-30T17:38:57;24.77;;;9.03;;
16119;SDS011;12670;53.502;10.252;2022-10-30T17:42:00;36.80;;;10.07;;
16119;SDS011;12670;53.502;10.252;2022-10-30T17:45:02;24.47;;;9.07;;
16119;SDS011;12670;53.502;10.252;2022-10-30T17:48:10;18.10;;;8.90;;
16119;SDS011;12670;53.502;10.252;2022-10-30T17:51:15;22.87;;;8.73;;
16119;SDS011;12670;53.502;10.252;2022-10-30T17:54:20;19.53;;;8.70;;
16119;SDS011;12670;53.502;10.252;2022-10-30T17:57:23;21.40;;;9.60;;
16119;SDS011;12670;53.502;10.252;2022-10-30T18:00:27;23.50;;;9.20;;
16119;SDS011;12670;53.502;10.252;2022-10-30T18:03:29;22.90;;;10.40;;
16119;SDS011;12670;53.502;10.252;2022-10-30T18:06:32;24.23;;;10.20;;
16119;SDS011;12670;53.502;10.252;2022-10-30T18:09:36;23.47;;;10.40;;
16119;SDS011;12670;53.502;10.252;2022-10-30T18:12:39;24.70;;;9.63;;
16119;SDS011;12670;53.502;10.252;2022-10-30T18:15:43;27.07;;;11.57;;